sensor_id;sensor_type;location;lat;lon;timestamp;P1;durP1;ratioP1;P2;durP2;ratioP2
13421;SDS011;6782;55.904;13.396;2022-11-15T00:00:23;71.13;;;44.70;;
13421;SDS011;6782;55.904;13.396;2022-11-15T00:03:12;68.67;;;43.03;;
13421;SDS011;6782;55.904;13.396;2022-11-15T00:06:01;67.63;;;44.77;;
13421;SDS011;6782;55.904;13.396;2022-11-15T00:08:49;64.00;;;43.80;;
13421;SDS011;6782;55.904;13.396;2022-11-15T00:11:37;64.20;;;43.60;;
13421;SDS011;6782;55.904;13.396;2022-11-15T00:14:25;63.23;;;40.97;;
13421;SDS011;6782;55.904;13.396;2022-11-15T00:17:12;65.93;;;41.43;;
13421;SDS011;6782;55.904;13.396;2022-11-15T00:19:59;64.37;;;42.90;;
13421;SDS011;6782;55.904;13.396;2022-11-15T00:22:46;65.60;;;42.60;;
13421;SDS011;6782;55.904;13.396;2022-11-15T00:25:33;65.27;;;42.63;;
13421;SDS011;6782;55.904;13.396;2022-11-15T00:28:22;62.33;;;41.10;;
13421;SDS011;6782;55.904;13.396;2022-11-15T00:31:11;61.87;;;41.87;;
13421;SDS011;6782;55.904;13.396;2022-11-15T00:34:00;66.33;;;42.53;;
13421;SDS011;6782;55.904;13.396;2022-11-15T00:36:47;66.33;;;43.37;;
13421;SDS011;6782;55.904;13.396;2022-11-15T00:39:34;64.23;;;41.40;;
13421;SDS011;6782;55.904;13.396;2022-11-15T00:42:21;64.73;;;42.50;;
13421;SDS011;6782;55.904;13.396;2022-11-15T00:45:10;61.37;;;42.20;;
13421;SDS011;6782;55.904;13.396;2022-11-15T00:47:57;63.37;;;40.07;;
13421;SDS011;6782;55.904;13.396;2022-11-15T00:50:45;61.00;;;41.53;;
13421;SDS011;6782;55.904;13.396;2022-11-15T00:53:32;63.03;;;41.87;;
13421;SDS011;6782;55.904;13.396;2022-11-15T00:56:19;58.23;;;39.97;;
13421;SDS011;6782;55.904;13.396;2022-11-15T00:59:06;61.73;;;41.57;;
13421;SDS011;6782;55.904;13.396;2022-11-15T01:01:55;60.50;;;38.63;;
13421;SDS011;6782;55.904;13.396;2022-11-15T01:04:42;55.33;;;39.10;;
13421;SDS011;6782;55.904;13.396;2022-11-15T01:07:30;56.07;;;38.60;;
13421;SDS011;6782;55.904;13.396;2022-11-15T01:10:17;58.20;;;40.93;;
13421;SDS011;6782;55.904;13.396;2022-11-15T01:13:04;59.03;;;39.53;;
13421;SDS011;6782;55.904;13.396;2022-11-15T01:15:52;59.03;;;39.90;;
13421;SDS011;6782;55.904;13.396;2022-11-15T01:18:40;54.47;;;39.50;;
13421;SDS011;6782;55.904;13.396;2022-11-15T01:21:27;56.73;;;39.63;;
13421;SDS011;6782;55.904;13.396;2022-11-15T01:24:15;50.07;;;36.80;;
13421;SDS011;6782;55.904;13.396;2022-11-15T01:27:02;49.07;;;36.60;;
13421;SDS011;6782;55.904;13.396;2022-11-15T01:29:50;49.87;;;36.30;;
13421;SDS011;6782;55.904;13.396;2022-11-15T01:32:37;50.07;;;35.47;;
13421;SDS011;6782;55.904;13.396;2022-11-15T01:35:26;47.80;;;33.57;;
13421;SDS011;6782;55.904;13.396;2022-11-15T01:38:13;51.73;;;35.10;;
13421;SDS011;6782;55.904;13.396;2022-11-15T01:41:00;47.97;;;35.30;;
13421;SDS011;6782;55.904;13.396;2022-11-15T01:43:48;47.17;;;34.20;;
13421;SDS011;6782;55.904;13.396;2022-11-15T01:46:38;48.97;;;34.47;;
13421;SDS011;6782;55.904;13.396;2022-11-15T01:49:25;48.83;;;35.77;;
13421;SDS011;6782;55.904;13.396;2022-11-15T01:52:19;49.33;;;33.63;;
13421;SDS011;6782;55.904;13.396;2022-11-15T01:55:09;45.80;;;32.33;;
13421;SDS011;6782;55.904;13.396;2022-11-15T01:58:01;48.93;;;34.50;;
13421;SDS011;6782;55.904;13.396;2022-11-15T02:00:51;46.17;;;33.57;;
13421;SDS011;6782;55.904;13.396;2022-11-15T02:03:41;47.03;;;33.77;;
13421;SDS011;6782;55.904;13.396;2022-11-15T02:06:35;41.20;;;32.33;;
13421;SDS011;6782;55.904;13.396;2022-11-15T02:09:24;51.23;;;34.10;;
13421;SDS011;6782;55.904;13.396;2022-11-15T02:12:12;48.63;;;34.57;;
13421;SDS011;6782;55.904;13.396;2022-11-15T02:15:02;48.20;;;34.40;;
13421;SDS011;6782;55.904;13.396;2022-11-15T02:17:56;48.60;;;35.53;;
13421;SDS011;6782;55.904;13.396;2022-11-15T02:20:58;45.97;;;35.40;;
13421;SDS011;6782;55.904;13.396;2022-11-15T02:27:27;50.10;;;37.07;;
13421;SDS011;6782;55.904;13.396;2022-11-15T02:30:37;50.00;;;36.23;;
13421;SDS011;6782;55.904;13.396;2022-11-15T02:33:32;46.47;;;34.97;;
13421;SDS011;6782;55.904;13.396;2022-11-15T02:36:28;44.93;;;32.97;;
13421;SDS011;6782;55.904;13.396;2022-11-15T02:39:23;46.63;;;33.67;;
13421;SDS011;6782;55.904;13.396;2022-11-15T02:42:19;47.77;;;36.00;;
13421;SDS011;6782;55.904;13.396;2022-11-15T02:45:28;51.97;;;35.73;;
13421;SDS011;6782;55.904;13.396;2022-11-15T02:48:21;53.00;;;35.07;;
13421;SDS011;6782;55.904;13.396;2022-11-15T02:51:11;50.70;;;34.00;;
13421;SDS011;6782;55.904;13.396;2022-11-15T02:53:59;47.13;;;33.40;;
13421;SDS011;6782;55.904;13.396;2022-11-15T02:56:46;49.67;;;33.57;;
13421;SDS011;6782;55.904;13.396;2022-11-15T03:02:57;47.67;;;35.93;;
13421;SDS011;6782;55.904;13.396;2022-11-15T03:05:59;49.33;;;35.53;;
13421;SDS011;6782;55.904;13.396;2022-11-15T03:08:57;50.97;;;36.27;;
13421;SDS011;6782;55.904;13.396;2022-11-15T03:11:54;48.30;;;34.03;;
13421;SDS011;6782;55.904;13.396;2022-11-15T03:14:49;47.00;;;35.33;;
13421;SDS011;6782;55.904;13.396;2022-11-15T03:17:43;50.87;;;36.03;;
13421;SDS011;6782;55.904;13.396;2022-11-15T03:20:35;47.00;;;35.47;;
13421;SDS011;6782;55.904;13.396;2022-11-15T03:23:25;52.07;;;34.83;;
13421;SDS011;6782;55.904;13.396;2022-11-15T03:26:13;49.57;;;34.47;;
13421;SDS011;6782;55.904;13.396;2022-11-15T03:29:03;46.93;;;34.67;;
13421;SDS011;6782;55.904;13.396;2022-11-15T03:31:57;48.67;;;34.47;;
13421;SDS011;6782;55.904;13.396;2022-11-15T03:34:47;53.33;;;37.13;;
13421;SDS011;6782;55.904;13.396;2022-11-15T03:37:53;51.50;;;37.37;;
13421;SDS011;6782;55.904;13.396;2022-11-15T03:40:49;55.17;;;37.27;;
13421;SDS011;6782;55.904;13.396;2022-11-15T03:43:44;49.87;;;35.97;;
13421;SDS011;6782;55.904;13.396;2022-11-15T03:46:40;49.03;;;34.77;;
13421;SDS011;6782;55.904;13.396;2022-11-15T03:49:33;49.80;;;36.60;;
13421;SDS011;6782;55.904;13.396;2022-11-15T03:52:23;50.33;;;35.53;;
13421;SDS011;6782;55.904;13.396;2022-11-15T03:55:12;44.90;;;34.23;;
13421;SDS011;6782;55.904;13.396;2022-11-15T03:58:03;49.00;;;36.63;;
13421;SDS011;6782;55.904;13.396;2022-11-15T04:00:50;49.70;;;36.67;;
13421;SDS011;6782;55.904;13.396;2022-11-15T04:03:37;48.40;;;36.33;;
13421;SDS011;6782;55.904;13.396;2022-11-15T04:06:24;49.00;;;36.03;;
13421;SDS011;6782;55.904;13.396;2022-11-15T04:09:12;50.33;;;36.63;;
13421;SDS011;6782;55.904;13.396;2022-11-15T04:11:59;48.77;;;36.40;;
13421;SDS011;6782;55.904;13.396;2022-11-15T04:14:47;50.30;;;37.47;;
13421;SDS011;6782;55.904;13.396;2022-11-15T04:17:53;50.27;;;36.83;;
13421;SDS011;6782;55.904;13.396;2022-11-15T04:20:41;45.23;;;34.27;;
13421;SDS011;6782;55.904;13.396;2022-11-15T04:23:45;46.73;;;35.40;;
13421;SDS011;6782;55.904;13.396;2022-11-15T04:26:46;47.03;;;36.10;;
13421;SDS011;6782;55.904;13.396;2022-11-15T04:29:34;48.07;;;36.20;;
13421;SDS011;6782;55.904;13.396;2022-11-15T04:32:22;50.20;;;35.97;;
13421;SDS011;6782;55.904;13.396;2022-11-15T04:35:09;48.10;;;36.43;;
13421;SDS011;6782;55.904;13.396;2022-11-15T04:37:57;49.30;;;36.63;;
13421;SDS011;6782;55.904;13.396;2022-11-15T04:40:45;50.33;;;35.23;;
13421;SDS011;6782;55.904;13.396;2022-11-15T04:43:33;47.00;;;34.17;;
13421;SDS011;6782;55.904;13.396;2022-11-15T04:46:21;47.93;;;35.47;;
13421;SDS011;6782;55.904;13.396;2022-11-15T04:49:10;46.57;;;35.57;;
13421;SDS011;6782;55.904;13.396;2022-11-15T04:51:57;46.97;;;35.97;;
13421;SDS011;6782;55.904;13.396;2022-11-15T04:54:45;42.03;;;32.93;;
13421;SDS011;6782;55.904;13.396;2022-11-15T04:57:32;43.37;;;34.70;;
13421;SDS011;6782;55.904;13.396;2022-11-15T05:00:19;42.37;;;32.80;;
13421;SDS011;6782;55.904;13.396;2022-11-15T05:03:08;43.60;;;33.17;;
13421;SDS011;6782;55.904;13.396;2022-11-15T05:06:14;46.90;;;34.57;;
13421;SDS011;6782;55.904;13.396;2022-11-15T05:09:02;40.90;;;32.67;;
13421;SDS011;6782;55.904;13.396;2022-11-15T05:11:49;42.67;;;31.97;;
13421;SDS011;6782;55.904;13.396;2022-11-15T05:14:37;41.77;;;31.90;;
13421;SDS011;6782;55.904;13.396;2022-11-15T05:17:25;40.07;;;31.37;;
13421;SDS011;6782;55.904;13.396;2022-11-15T05:20:12;39.33;;;29.47;;
13421;SDS011;6782;55.904;13.396;2022-11-15T05:23:02;36.33;;;29.97;;
13421;SDS011;6782;55.904;13.396;2022-11-15T05:25:49;38.60;;;30.10;;
13421;SDS011;6782;55.904;13.396;2022-11-15T05:28:36;37.37;;;30.47;;
13421;SDS011;6782;55.904;13.396;2022-11-15T05:31:24;38.57;;;31.37;;
13421;SDS011;6782;55.904;13.396;2022-11-15T05:34:12;38.77;;;30.53;;
13421;SDS011;6782;55.904;13.396;2022-11-15T05:37:00;37.50;;;30.67;;
13421;SDS011;6782;55.904;13.396;2022-11-15T05:39:48;39.27;;;31.20;;
13421;SDS011;6782;55.904;13.396;2022-11-15T05:42:35;37.50;;;30.40;;
13421;SDS011;6782;55.904;13.396;2022-11-15T05:45:23;37.20;;;29.97;;
13421;SDS011;6782;55.904;13.396;2022-11-15T05:48:10;40.00;;;31.07;;
13421;SDS011;6782;55.904;13.396;2022-11-15T05:50:59;42.30;;;32.77;;
13421;SDS011;6782;55.904;13.396;2022-11-15T05:53:48;40.77;;;32.97;;
13421;SDS011;6782;55.904;13.396;2022-11-15T05:56:39;40.47;;;32.07;;
13421;SDS011;6782;55.904;13.396;2022-11-15T05:59:28;40.13;;;31.47;;
13421;SDS011;6782;55.904;13.396;2022-11-15T06:02:15;43.33;;;33.47;;
13421;SDS011;6782;55.904;13.396;2022-11-15T06:05:03;42.20;;;32.47;;
13421;SDS011;6782;55.904;13.396;2022-11-15T06:07:50;39.93;;;32.83;;
13421;SDS011;6782;55.904;13.396;2022-11-15T06:10:38;43.33;;;34.70;;
13421;SDS011;6782;55.904;13.396;2022-11-15T06:13:27;40.50;;;32.23;;
13421;SDS011;6782;55.904;13.396;2022-11-15T06:16:14;43.70;;;33.10;;
13421;SDS011;6782;55.904;13.396;2022-11-15T06:19:01;37.83;;;31.07;;
13421;SDS011;6782;55.904;13.396;2022-11-15T06:21:49;37.43;;;31.13;;
13421;SDS011;6782;55.904;13.396;2022-11-15T06:24:36;38.63;;;31.00;;
13421;SDS011;6782;55.904;13.396;2022-11-15T06:27:23;37.70;;;32.13;;
13421;SDS011;6782;55.904;13.396;2022-11-15T06:30:12;38.23;;;31.73;;
13421;SDS011;6782;55.904;13.396;2022-11-15T06:33:00;36.03;;;31.50;;
13421;SDS011;6782;55.904;13.396;2022-11-15T06:35:48;36.83;;;30.37;;
13421;SDS011;6782;55.904;13.396;2022-11-15T06:38:35;38.03;;;30.67;;
13421;SDS011;6782;55.904;13.396;2022-11-15T06:41:23;37.27;;;31.57;;
13421;SDS011;6782;55.904;13.396;2022-11-15T06:44:10;36.73;;;29.93;;
13421;SDS011;6782;55.904;13.396;2022-11-15T06:46:59;38.03;;;31.03;;
13421;SDS011;6782;55.904;13.396;2022-11-15T06:49:47;35.87;;;31.63;;
13421;SDS011;6782;55.904;13.396;2022-11-15T06:52:34;36.93;;;29.90;;
13421;SDS011;6782;55.904;13.396;2022-11-15T06:55:21;37.37;;;31.80;;
13421;SDS011;6782;55.904;13.396;2022-11-15T06:58:08;38.63;;;30.47;;
13421;SDS011;6782;55.904;13.396;2022-11-15T07:00:58;37.80;;;31.50;;
13421;SDS011;6782;55.904;13.396;2022-11-15T07:03:47;39.33;;;31.30;;
13421;SDS011;6782;55.904;13.396;2022-11-15T07:06:34;37.60;;;30.40;;
13421;SDS011;6782;55.904;13.396;2022-11-15T07:09:21;34.80;;;29.50;;
13421;SDS011;6782;55.904;13.396;2022-11-15T07:12:09;36.37;;;30.80;;
13421;SDS011;6782;55.904;13.396;2022-11-15T07:14:56;39.03;;;31.70;;
13421;SDS011;6782;55.904;13.396;2022-11-15T07:17:43;39.07;;;32.00;;
13421;SDS011;6782;55.904;13.396;2022-11-15T07:20:32;39.73;;;32.83;;
13421;SDS011;6782;55.904;13.396;2022-11-15T07:23:19;38.80;;;32.40;;
13421;SDS011;6782;55.904;13.396;2022-11-15T07:26:06;40.40;;;33.17;;
13421;SDS011;6782;55.904;13.396;2022-11-15T07:28:54;42.13;;;34.23;;
13421;SDS011;6782;55.904;13.396;2022-11-15T07:31:41;42.80;;;34.33;;
13421;SDS011;6782;55.904;13.396;2022-11-15T07:34:29;42.30;;;33.90;;
13421;SDS011;6782;55.904;13.396;2022-11-15T07:37:18;43.43;;;34.90;;
13421;SDS011;6782;55.904;13.396;2022-11-15T07:40:06;41.33;;;34.40;;
13421;SDS011;6782;55.904;13.396;2022-11-15T07:42:58;38.97;;;32.70;;
13421;SDS011;6782;55.904;13.396;2022-11-15T07:45:46;44.53;;;34.70;;
13421;SDS011;6782;55.904;13.396;2022-11-15T07:48:33;41.97;;;34.17;;
13421;SDS011;6782;55.904;13.396;2022-11-15T07:51:20;42.10;;;34.47;;
13421;SDS011;6782;55.904;13.396;2022-11-15T07:54:09;41.13;;;33.33;;
13421;SDS011;6782;55.904;13.396;2022-11-15T07:56:56;40.23;;;34.77;;
13421;SDS011;6782;55.904;13.396;2022-11-15T07:59:43;40.63;;;33.77;;
13421;SDS011;6782;55.904;13.396;2022-11-15T08:02:31;42.40;;;34.80;;
13421;SDS011;6782;55.904;13.396;2022-11-15T08:05:18;40.03;;;34.13;;
13421;SDS011;6782;55.904;13.396;2022-11-15T08:08:05;40.00;;;34.63;;
13421;SDS011;6782;55.904;13.396;2022-11-15T08:10:54;42.90;;;35.13;;
13421;SDS011;6782;55.904;13.396;2022-11-15T08:13:44;42.60;;;34.57;;
13421;SDS011;6782;55.904;13.396;2022-11-15T08:16:31;41.60;;;35.90;;
13421;SDS011;6782;55.904;13.396;2022-11-15T08:19:18;41.03;;;35.13;;
13421;SDS011;6782;55.904;13.396;2022-11-15T08:22:06;44.17;;;34.50;;
13421;SDS011;6782;55.904;13.396;2022-11-15T08:24:53;41.73;;;35.10;;
13421;SDS011;6782;55.904;13.396;2022-11-15T08:27:42;44.20;;;35.57;;
13421;SDS011;6782;55.904;13.396;2022-11-15T08:30:30;43.20;;;36.57;;
13421;SDS011;6782;55.904;13.396;2022-11-15T08:33:17;44.97;;;37.57;;
13421;SDS011;6782;55.904;13.396;2022-11-15T08:36:05;44.60;;;37.80;;
13421;SDS011;6782;55.904;13.396;2022-11-15T08:38:52;45.60;;;38.33;;
13421;SDS011;6782;55.904;13.396;2022-11-15T08:41:39;44.03;;;36.50;;
13421;SDS011;6782;55.904;13.396;2022-11-15T08:44:28;47.73;;;37.77;;
13421;SDS011;6782;55.904;13.396;2022-11-15T08:47:15;44.93;;;37.13;;
13421;SDS011;6782;55.904;13.396;2022-11-15T08:50:03;44.23;;;37.10;;
13421;SDS011;6782;55.904;13.396;2022-11-15T08:52:50;44.70;;;36.07;;
13421;SDS011;6782;55.904;13.396;2022-11-15T08:55:37;39.97;;;34.03;;
13421;SDS011;6782;55.904;13.396;2022-11-15T08:58:25;38.87;;;33.63;;
13421;SDS011;6782;55.904;13.396;2022-11-15T09:01:16;46.03;;;34.90;;
13421;SDS011;6782;55.904;13.396;2022-11-15T09:04:05;44.03;;;35.30;;
13421;SDS011;6782;55.904;13.396;2022-11-15T09:06:52;43.07;;;34.13;;
13421;SDS011;6782;55.904;13.396;2022-11-15T09:09:39;41.87;;;33.90;;
13421;SDS011;6782;55.904;13.396;2022-11-15T09:12:27;41.87;;;33.93;;
13421;SDS011;6782;55.904;13.396;2022-11-15T09:15:14;43.60;;;34.20;;
13421;SDS011;6782;55.904;13.396;2022-11-15T09:18:04;42.33;;;34.90;;
13421;SDS011;6782;55.904;13.396;2022-11-15T09:20:51;41.87;;;35.37;;
13421;SDS011;6782;55.904;13.396;2022-11-15T09:23:42;41.53;;;34.70;;
13421;SDS011;6782;55.904;13.396;2022-11-15T09:26:29;38.43;;;32.93;;
13421;SDS011;6782;55.904;13.396;2022-11-15T09:29:16;39.87;;;32.10;;
13421;SDS011;6782;55.904;13.396;2022-11-15T09:32:04;39.13;;;32.13;;
13421;SDS011;6782;55.904;13.396;2022-11-15T09:34:53;39.37;;;31.97;;
13421;SDS011;6782;55.904;13.396;2022-11-15T09:37:41;40.50;;;32.80;;
13421;SDS011;6782;55.904;13.396;2022-11-15T09:40:29;40.50;;;32.30;;
13421;SDS011;6782;55.904;13.396;2022-11-15T09:43:23;37.37;;;31.90;;
13421;SDS011;6782;55.904;13.396;2022-11-15T09:46:29;41.90;;;33.53;;
13421;SDS011;6782;55.904;13.396;2022-11-15T09:49:25;40.33;;;34.63;;
13421;SDS011;6782;55.904;13.396;2022-11-15T09:52:20;40.63;;;32.00;;
13421;SDS011;6782;55.904;13.396;2022-11-15T09:55:08;43.30;;;34.47;;
13421;SDS011;6782;55.904;13.396;2022-11-15T09:58:00;45.57;;;35.93;;
13421;SDS011;6782;55.904;13.396;2022-11-15T10:00:52;41.90;;;35.03;;
13421;SDS011;6782;55.904;13.396;2022-11-15T10:03:40;43.27;;;35.13;;
13421;SDS011;6782;55.904;13.396;2022-11-15T10:06:28;39.00;;;32.43;;
13421;SDS011;6782;55.904;13.396;2022-11-15T10:09:19;44.03;;;34.20;;
13421;SDS011;6782;55.904;13.396;2022-11-15T10:12:11;44.07;;;34.50;;
13421;SDS011;6782;55.904;13.396;2022-11-15T10:15:02;42.40;;;33.97;;
13421;SDS011;6782;55.904;13.396;2022-11-15T10:21:06;44.53;;;34.87;;
13421;SDS011;6782;55.904;13.396;2022-11-15T10:24:05;43.83;;;34.07;;
13421;SDS011;6782;55.904;13.396;2022-11-15T10:26:59;43.53;;;35.90;;
13421;SDS011;6782;55.904;13.396;2022-11-15T10:29:48;47.27;;;36.50;;
13421;SDS011;6782;55.904;13.396;2022-11-15T10:32:36;42.23;;;33.67;;
13421;SDS011;6782;55.904;13.396;2022-11-15T10:35:25;47.23;;;34.23;;
13421;SDS011;6782;55.904;13.396;2022-11-15T10:38:14;42.33;;;34.03;;
13421;SDS011;6782;55.904;13.396;2022-11-15T10:41:06;42.90;;;34.53;;
13421;SDS011;6782;55.904;13.396;2022-11-15T10:44:07;44.00;;;34.40;;
13421;SDS011;6782;55.904;13.396;2022-11-15T10:47:06;44.80;;;33.73;;
13421;SDS011;6782;55.904;13.396;2022-11-15T10:50:26;45.17;;;34.83;;
13421;SDS011;6782;55.904;13.396;2022-11-15T10:53:17;43.53;;;31.80;;
13421;SDS011;6782;55.904;13.396;2022-11-15T10:56:08;43.83;;;31.40;;
13421;SDS011;6782;55.904;13.396;2022-11-15T10:59:03;40.07;;;32.47;;
13421;SDS011;6782;55.904;13.396;2022-11-15T11:01:50;39.03;;;30.07;;
13421;SDS011;6782;55.904;13.396;2022-11-15T11:04:49;41.83;;;32.13;;
13421;SDS011;6782;55.904;13.396;2022-11-15T11:07:37;38.70;;;30.67;;
13421;SDS011;6782;55.904;13.396;2022-11-15T11:10:26;34.20;;;27.87;;
13421;SDS011;6782;55.904;13.396;2022-11-15T11:13:14;36.23;;;26.93;;
13421;SDS011;6782;55.904;13.396;2022-11-15T11:19:31;35.17;;;28.90;;
13421;SDS011;6782;55.904;13.396;2022-11-15T11:22:26;37.20;;;28.60;;
13421;SDS011;6782;55.904;13.396;2022-11-15T11:25:23;30.80;;;25.90;;
13421;SDS011;6782;55.904;13.396;2022-11-15T11:28:20;33.63;;;28.43;;
13421;SDS011;6782;55.904;13.396;2022-11-15T11:31:20;31.30;;;27.13;;
13421;SDS011;6782;55.904;13.396;2022-11-15T11:34:19;28.23;;;24.43;;
13421;SDS011;6782;55.904;13.396;2022-11-15T11:37:24;28.07;;;23.40;;
13421;SDS011;6782;55.904;13.396;2022-11-15T11:40:24;25.77;;;22.97;;
13421;SDS011;6782;55.904;13.396;2022-11-15T11:43:18;26.67;;;21.77;;
13421;SDS011;6782;55.904;13.396;2022-11-15T11:46:20;24.10;;;21.30;;
13421;SDS011;6782;55.904;13.396;2022-11-15T11:49:20;23.10;;;20.63;;
13421;SDS011;6782;55.904;13.396;2022-11-15T11:52:13;22.30;;;19.33;;
13421;SDS011;6782;55.904;13.396;2022-11-15T11:55:05;20.73;;;18.53;;
13421;SDS011;6782;55.904;13.396;2022-11-15T11:58:03;20.67;;;18.47;;
13421;SDS011;6782;55.904;13.396;2022-11-15T12:00:57;21.53;;;19.23;;
13421;SDS011;6782;55.904;13.396;2022-11-15T12:03:51;20.77;;;18.57;;
13421;SDS011;6782;55.904;13.396;2022-11-15T12:06:47;19.53;;;17.53;;
13421;SDS011;6782;55.904;13.396;2022-11-15T12:09:39;20.93;;;17.83;;
13421;SDS011;6782;55.904;13.396;2022-11-15T12:12:34;20.50;;;17.83;;
13421;SDS011;6782;55.904;13.396;2022-11-15T12:15:26;19.63;;;17.53;;
13421;SDS011;6782;55.904;13.396;2022-11-15T12:18:17;19.63;;;17.53;;
13421;SDS011;6782;55.904;13.396;2022-11-15T12:21:05;18.97;;;17.00;;
13421;SDS011;6782;55.904;13.396;2022-11-15T12:24:02;19.27;;;16.87;;
13421;SDS011;6782;55.904;13.396;2022-11-15T12:26:54;19.73;;;16.10;;
13421;SDS011;6782;55.904;13.396;2022-11-15T12:29:46;18.50;;;16.00;;
13421;SDS011;6782;55.904;13.396;2022-11-15T12:32:38;18.37;;;16.37;;
13421;SDS011;6782;55.904;13.396;2022-11-15T12:35:27;17.80;;;15.90;;
13421;SDS011;6782;55.904;13.396;2022-11-15T12:41:42;16.40;;;14.80;;
13421;SDS011;6782;55.904;13.396;2022-11-15T12:47:49;18.23;;;16.43;;
13421;SDS011;6782;55.904;13.396;2022-11-15T12:50:53;21.00;;;18.80;;
13421;SDS011;6782;55.904;13.396;2022-11-15T12:53:41;21.87;;;19.57;;
13421;SDS011;6782;55.904;13.396;2022-11-15T12:56:29;21.73;;;19.43;;
13421;SDS011;6782;55.904;13.396;2022-11-15T12:59:38;20.63;;;18.13;;
13421;SDS011;6782;55.904;13.396;2022-11-15T13:02:35;23.53;;;21.03;;
13421;SDS011;6782;55.904;13.396;2022-11-15T13:08:45;22.23;;;19.97;;
13421;SDS011;6782;55.904;13.396;2022-11-15T13:11:46;20.47;;;18.37;;
13421;SDS011;6782;55.904;13.396;2022-11-15T13:14:40;20.07;;;17.97;;
13421;SDS011;6782;55.904;13.396;2022-11-15T13:17:35;22.87;;;20.37;;
13421;SDS011;6782;55.904;13.396;2022-11-15T13:20:26;21.13;;;18.93;;
13421;SDS011;6782;55.904;13.396;2022-11-15T13:23:14;21.03;;;18.40;;
13421;SDS011;6782;55.904;13.396;2022-11-15T13:26:06;20.27;;;18.17;;
13421;SDS011;6782;55.904;13.396;2022-11-15T13:28:58;20.83;;;18.07;;
13421;SDS011;6782;55.904;13.396;2022-11-15T13:31:47;20.70;;;18.30;;
13421;SDS011;6782;55.904;13.396;2022-11-15T13:34:35;22.43;;;18.53;;
13421;SDS011;6782;55.904;13.396;2022-11-15T13:37:27;19.93;;;17.83;;
13421;SDS011;6782;55.904;13.396;2022-11-15T13:40:22;19.00;;;16.97;;
13421;SDS011;6782;55.904;13.396;2022-11-15T13:43:23;22.03;;;19.03;;
13421;SDS011;6782;55.904;13.396;2022-11-15T13:46:16;19.77;;;17.43;;
13421;SDS011;6782;55.904;13.396;2022-11-15T13:49:08;20.17;;;18.13;;
13421;SDS011;6782;55.904;13.396;2022-11-15T13:51:57;18.50;;;16.60;;
13421;SDS011;6782;55.904;13.396;2022-11-15T13:54:47;18.93;;;16.83;;
13421;SDS011;6782;55.904;13.396;2022-11-15T13:57:40;19.23;;;17.23;;
13421;SDS011;6782;55.904;13.396;2022-11-15T14:00:32;18.77;;;16.77;;
13421;SDS011;6782;55.904;13.396;2022-11-15T14:03:24;19.27;;;16.60;;
13421;SDS011;6782;55.904;13.396;2022-11-15T14:06:16;20.23;;;16.80;;
13421;SDS011;6782;55.904;13.396;2022-11-15T14:09:22;18.73;;;16.70;;
13421;SDS011;6782;55.904;13.396;2022-11-15T14:12:21;19.43;;;16.93;;
13421;SDS011;6782;55.904;13.396;2022-11-15T14:15:18;19.17;;;16.53;;
13421;SDS011;6782;55.904;13.396;2022-11-15T14:21:30;19.23;;;16.90;;
13421;SDS011;6782;55.904;13.396;2022-11-15T14:24:18;30.80;;;27.67;;
13421;SDS011;6782;55.904;13.396;2022-11-15T14:27:18;21.17;;;19.00;;
13421;SDS011;6782;55.904;13.396;2022-11-15T14:30:12;16.40;;;14.70;;
13421;SDS011;6782;55.904;13.396;2022-11-15T14:33:00;24.33;;;20.73;;
13421;SDS011;6782;55.904;13.396;2022-11-15T14:35:50;21.03;;;18.87;;
13421;SDS011;6782;55.904;13.396;2022-11-15T14:38:39;15.03;;;13.17;;
13421;SDS011;6782;55.904;13.396;2022-11-15T14:41:28;14.40;;;12.90;;
13421;SDS011;6782;55.904;13.396;2022-11-15T14:44:18;13.13;;;11.47;;
13421;SDS011;6782;55.904;13.396;2022-11-15T14:47:07;12.30;;;11.10;;
13421;SDS011;6782;55.904;13.396;2022-11-15T14:49:54;13.30;;;11.37;;
13421;SDS011;6782;55.904;13.396;2022-11-15T14:52:41;15.17;;;13.57;;
13421;SDS011;6782;55.904;13.396;2022-11-15T14:55:32;13.30;;;11.87;;
13421;SDS011;6782;55.904;13.396;2022-11-15T14:58:21;13.70;;;12.33;;
13421;SDS011;6782;55.904;13.396;2022-11-15T15:01:10;13.83;;;12.43;;
13421;SDS011;6782;55.904;13.396;2022-11-15T15:03:59;13.20;;;11.80;;
13421;SDS011;6782;55.904;13.396;2022-11-15T15:06:47;13.53;;;12.00;;
13421;SDS011;6782;55.904;13.396;2022-11-15T15:09:35;12.83;;;11.53;;
13421;SDS011;6782;55.904;13.396;2022-11-15T15:12:24;12.13;;;10.93;;
13421;SDS011;6782;55.904;13.396;2022-11-15T15:15:12;11.67;;;10.57;;
13421;SDS011;6782;55.904;13.396;2022-11-15T15:18:01;11.53;;;10.33;;
13421;SDS011;6782;55.904;13.396;2022-11-15T15:20:53;12.07;;;10.70;;
13421;SDS011;6782;55.904;13.396;2022-11-15T15:23:43;11.47;;;10.37;;
13421;SDS011;6782;55.904;13.396;2022-11-15T15:26:30;11.27;;;10.23;;
13421;SDS011;6782;55.904;13.396;2022-11-15T15:29:23;11.67;;;10.57;;
13421;SDS011;6782;55.904;13.396;2022-11-15T15:32:10;11.70;;;10.60;;
13421;SDS011;6782;55.904;13.396;2022-11-15T15:34:58;15.30;;;11.97;;
13421;SDS011;6782;55.904;13.396;2022-11-15T15:37:46;16.37;;;13.10;;
13421;SDS011;6782;55.904;13.396;2022-11-15T15:40:35;17.97;;;14.17;;
13421;SDS011;6782;55.904;13.396;2022-11-15T15:43:22;16.20;;;12.73;;
13421;SDS011;6782;55.904;13.396;2022-11-15T15:46:12;11.13;;;10.10;;
13421;SDS011;6782;55.904;13.396;2022-11-15T15:49:00;15.23;;;12.47;;
13421;SDS011;6782;55.904;13.396;2022-11-15T15:51:48;15.63;;;13.37;;
13421;SDS011;6782;55.904;13.396;2022-11-15T15:54:36;14.43;;;12.37;;
13421;SDS011;6782;55.904;13.396;2022-11-15T15:57:23;12.13;;;10.33;;
13421;SDS011;6782;55.904;13.396;2022-11-15T16:00:11;11.43;;;9.93;;
13421;SDS011;6782;55.904;13.396;2022-11-15T16:03:08;14.00;;;12.43;;
13421;SDS011;6782;55.904;13.396;2022-11-15T16:05:55;11.83;;;10.63;;
13421;SDS011;6782;55.904;13.396;2022-11-15T16:08:43;11.97;;;10.10;;
13421;SDS011;6782;55.904;13.396;2022-11-15T16:11:30;11.43;;;10.33;;
13421;SDS011;6782;55.904;13.396;2022-11-15T16:14:18;13.53;;;12.33;;
13421;SDS011;6782;55.904;13.396;2022-11-15T16:17:05;8.97;;;8.00;;
13421;SDS011;6782;55.904;13.396;2022-11-15T16:19:56;8.80;;;7.90;;
13421;SDS011;6782;55.904;13.396;2022-11-15T16:22:44;8.30;;;7.50;;
13421;SDS011;6782;55.904;13.396;2022-11-15T16:25:32;8.57;;;7.63;;
13421;SDS011;6782;55.904;13.396;2022-11-15T16:28:25;7.90;;;7.10;;
13421;SDS011;6782;55.904;13.396;2022-11-15T16:31:13;8.83;;;7.20;;
13421;SDS011;6782;55.904;13.396;2022-11-15T16:34:03;7.97;;;7.17;;
13421;SDS011;6782;55.904;13.396;2022-11-15T16:36:52;9.13;;;8.07;;
13421;SDS011;6782;55.904;13.396;2022-11-15T16:39:40;9.80;;;8.70;;
13421;SDS011;6782;55.904;13.396;2022-11-15T16:42:27;14.27;;;12.90;;
13421;SDS011;6782;55.904;13.396;2022-11-15T16:45:15;11.67;;;9.10;;
13421;SDS011;6782;55.904;13.396;2022-11-15T16:48:02;9.33;;;8.13;;
13421;SDS011;6782;55.904;13.396;2022-11-15T16:50:50;8.17;;;7.37;;
13421;SDS011;6782;55.904;13.396;2022-11-15T16:53:42;7.73;;;6.47;;
13421;SDS011;6782;55.904;13.396;2022-11-15T16:56:30;7.37;;;6.07;;
13421;SDS011;6782;55.904;13.396;2022-11-15T16:59:17;5.97;;;5.40;;
13421;SDS011;6782;55.904;13.396;2022-11-15T17:02:07;5.80;;;4.90;;
13421;SDS011;6782;55.904;13.396;2022-11-15T17:04:58;4.73;;;4.10;;